createdAt,value
2022-09-17T00:02:18.269Z,17.77
2022-09-17T00:06:26.466Z,17.53
2022-09-17T00:10:35.599Z,17.03
2022-09-17T00:14:27.760Z,16.61
2022-09-17T00:18:37.906Z,16.55
2022-09-17T00:22:43.772Z,17.68
2022-09-17T00:26:43.145Z,17.59
2022-09-17T00:30:51.555Z,17.18
2022-09-17T00:34:53.078Z,16.79
2022-09-17T00:38:39.825Z,16.69
2022-09-17T00:42:48.046Z,17.78
2022-09-17T00:46:44.549Z,17.70
2022-09-17T00:50:58.708Z,17.25
2022-09-17T00:54:41.367Z,16.79
2022-09-17T00:58:26.859Z,16.65
2022-09-17T01:02:38.191Z,17.73
2022-09-17T01:06:46.526Z,17.74
2022-09-17T01:10:50.737Z,17.30
2022-09-17T01:14:47.994Z,16.83
2022-09-17T01:19:02.155Z,16.72
2022-09-17T01:23:04.889Z,17.65
2022-09-17T01:27:28.049Z,17.42
2022-09-17T01:31:36.305Z,16.89
2022-09-17T01:35:51.736Z,16.45
2022-09-17T01:39:55.366Z,16.49
2022-09-17T01:44:15.380Z,17.53
2022-09-17T01:48:32.782Z,17.40
2022-09-17T01:52:30.140Z,16.91
2022-09-17T01:56:38.419Z,16.50
2022-09-17T02:00:48.399Z,16.47
2022-09-17T02:05:07.996Z,17.53
2022-09-17T02:09:16.175Z,17.30
2022-09-17T02:13:24.496Z,16.80
2022-09-17T02:17:38.723Z,16.32
2022-09-17T02:21:52.870Z,16.34
2022-09-17T02:26:10.323Z,17.38
2022-09-17T02:30:21.339Z,17.15
2022-09-17T02:34:22.145Z,16.71
2022-09-17T02:38:31.471Z,16.30
2022-09-17T02:42:54.397Z,16.27
2022-09-17T02:47:17.512Z,17.29
2022-09-17T02:51:25.671Z,17.02
2022-09-17T02:55:41.098Z,16.53
2022-09-17T02:59:58.358Z,16.07
2022-09-17T03:04:18.640Z,16.06
2022-09-17T03:08:26.807Z,17.07
2022-09-17T03:12:35.059Z,16.86
2022-09-17T03:16:23.138Z,16.39
2022-09-17T03:20:25.465Z,15.99
2022-09-17T03:24:33.665Z,15.92
2022-09-17T03:28:26.645Z,16.93
2022-09-17T03:32:34.733Z,16.80
2022-09-17T03:36:28.071Z,16.37
2022-09-17T03:40:36.315Z,15.96
2022-09-17T03:44:37.189Z,15.92
2022-09-17T03:48:45.317Z,16.96
2022-09-17T03:52:46.309Z,16.84
2022-09-17T03:56:55.143Z,16.41
2022-09-17T04:00:55.881Z,15.97
2022-09-17T04:04:58.927Z,15.63
2022-09-17T04:09:07.113Z,15.66
2022-09-17T04:13:15.306Z,16.87
2022-09-17T04:17:22.357Z,16.73
2022-09-17T04:21:23.210Z,16.30
2022-09-17T04:25:32.434Z,15.89
2022-09-17T04:29:40.582Z,15.84
2022-09-17T04:33:49.553Z,16.87
2022-09-17T04:37:47.629Z,16.75
2022-09-17T04:41:45.751Z,16.29
2022-09-17T04:45:54.028Z,15.86
2022-09-17T04:50:03.924Z,15.83
2022-09-17T04:54:13.067Z,16.81
2022-09-17T04:57:54.820Z,16.56
2022-09-17T05:02:04.030Z,16.15
2022-09-17T05:06:12.315Z,15.75
2022-09-17T05:10:20.444Z,15.78
2022-09-17T05:14:19.559Z,16.90
2022-09-17T05:18:19.850Z,16.82
2022-09-17T05:22:28.149Z,16.43
2022-09-17T05:26:39.035Z,16.06
2022-09-17T05:30:43.965Z,16.00
2022-09-17T05:34:53.817Z,17.10
2022-09-17T05:38:50.889Z,16.94
2022-09-17T05:43:04.624Z,16.54
2022-09-17T05:47:13.865Z,16.02
2022-09-17T05:51:14.549Z,15.96
2022-09-17T05:55:25.734Z,17.13
2022-09-17T05:59:37.730Z,17.06
2022-09-17T06:03:45.989Z,16.64
2022-09-17T06:07:37.187Z,16.29
2022-09-17T06:11:34.424Z,16.16
2022-09-17T06:15:37.026Z,17.19
2022-09-17T06:19:45.208Z,17.14
2022-09-17T06:23:35.137Z,16.66
2022-09-17T06:27:43.600Z,16.24
2022-09-17T06:31:52.710Z,16.29
2022-09-17T06:36:01.810Z,17.50
2022-09-17T06:40:10.090Z,17.39
2022-09-17T06:44:18.301Z,17.03
2022-09-17T06:47:57.700Z,16.67
2022-09-17T06:51:56.078Z,16.70
2022-09-17T06:54:57.124Z,17.81
2022-09-17T06:58:22.979Z,18.03
2022-09-17T07:02:25.076Z,17.69
2022-09-17T07:06:33.296Z,17.24
2022-09-17T07:10:40.334Z,17.18
2022-09-17T07:14:42.271Z,18.14
2022-09-17T07:18:49.497Z,18.03
2022-09-17T07:22:48.927Z,17.72
2022-09-17T07:26:57.162Z,17.36
2022-09-17T07:30:29.941Z,17.40
2022-09-17T07:34:31.991Z,18.30
2022-09-17T07:38:29.887Z,18.17
2022-09-17T07:42:28.156Z,17.65
2022-09-17T07:46:27.436Z,17.16
2022-09-17T07:50:08.665Z,16.99
2022-09-17T07:54:01.031Z,17.91
2022-09-17T07:57:25.029Z,17.95
2022-09-17T08:01:28.689Z,17.69
2022-09-17T08:05:10.231Z,17.43
2022-09-17T08:08:43.231Z,17.42
2022-09-17T08:12:18.365Z,18.49
2022-09-17T08:16:09.084Z,18.59
2022-09-17T08:20:17.293Z,18.25
2022-09-17T08:24:11.310Z,17.89
2022-09-17T08:27:18.131Z,17.66
2022-09-17T08:31:09.355Z,17.51
2022-09-17T08:35:10.320Z,18.63
2022-09-17T08:38:28.573Z,18.66
2022-09-17T08:42:25.303Z,18.38
2022-09-17T08:46:13.406Z,18.04
2022-09-17T08:50:05.065Z,17.83
2022-09-17T08:54:18.384Z,17.90
2022-09-17T08:57:54.675Z,19.22
2022-09-17T09:01:16.407Z,19.26
2022-09-17T09:04:47.746Z,18.98
2022-09-17T09:08:49.490Z,18.62
2022-09-17T09:12:57.831Z,18.45
2022-09-17T09:17:18.253Z,18.63
2022-09-17T09:21:07.176Z,19.94
2022-09-17T09:24:48.382Z,20.06
2022-09-17T09:28:47.904Z,19.96
2022-09-17T09:32:45.308Z,19.89
2022-09-17T09:36:46.040Z,19.67
2022-09-17T09:40:38.792Z,19.43
2022-09-17T09:44:50.047Z,19.24
2022-09-17T09:48:29.084Z,19.34
2022-09-17T09:52:52.224Z,20.65
2022-09-17T09:57:02.482Z,20.66
2022-09-17T10:01:27.918Z,20.38
2022-09-17T10:05:36.121Z,20.04
2022-09-17T10:09:37.838Z,19.91
2022-09-17T10:13:37.339Z,19.74
2022-09-17T10:17:27.177Z,19.72
2022-09-17T10:21:19.453Z,19.98
2022-09-17T10:25:20.512Z,21.31
2022-09-17T10:29:35.437Z,21.51
2022-09-17T10:33:52.427Z,21.21
2022-09-17T10:37:44.469Z,20.74
2022-09-17T10:41:48.412Z,20.24
2022-09-17T10:46:04.256Z,19.94
2022-09-17T10:50:25.350Z,19.73
2022-09-17T10:54:17.677Z,19.63
2022-09-17T10:58:23.861Z,19.58
2022-09-17T11:02:21.442Z,19.76
2022-09-17T11:06:27.172Z,21.22
2022-09-17T11:10:31.355Z,21.48
2022-09-17T11:14:44.759Z,21.12
2022-09-17T11:18:52.961Z,20.74
2022-09-17T11:22:52.439Z,20.46
2022-09-17T11:26:58.667Z,20.24
2022-09-17T11:31:05.185Z,20.19
2022-09-17T11:34:37.860Z,20.09
2022-09-17T11:38:11.299Z,19.90
2022-09-17T11:42:13.027Z,19.63
2022-09-17T11:45:46.168Z,19.49
2022-09-17T11:49:47.103Z,19.51
2022-09-17T11:53:59.356Z,19.58
2022-09-17T11:57:54.399Z,19.75
2022-09-17T12:01:39.460Z,19.90
2022-09-17T12:04:59.890Z,19.94
2022-09-17T12:09:08.012Z,20.17
2022-09-17T12:12:58.852Z,21.54
2022-09-17T12:17:19.261Z,21.59
2022-09-17T12:21:06.072Z,21.37
2022-09-17T12:25:32.501Z,21.17
2022-09-17T12:29:43.755Z,20.85
2022-09-17T12:33:51.189Z,20.49
2022-09-17T12:37:56.110Z,20.22
2022-09-17T12:42:09.792Z,20.13
2022-09-17T12:46:24.205Z,20.09
2022-09-17T12:50:44.360Z,19.91
2022-09-17T12:54:34.173Z,19.66
2022-09-17T12:58:43.700Z,19.46
2022-09-17T13:03:04.044Z,19.32
2022-09-17T13:06:50.444Z,19.26
2022-09-17T13:11:13.787Z,19.23
2022-09-17T13:15:30.288Z,19.07
2022-09-17T13:19:32.831Z,18.94
2022-09-17T13:23:35.046Z,18.85
2022-09-17T13:27:44.273Z,18.80
2022-09-17T13:31:52.010Z,18.72
2022-09-17T13:35:27.874Z,18.88
2022-09-17T13:38:55.937Z,19.98
2022-09-17T13:43:04.085Z,20.23
2022-09-17T13:47:11.169Z,19.87
2022-09-17T13:51:25.216Z,19.49
2022-09-17T13:55:36.875Z,19.17
2022-09-17T13:59:47.900Z,18.81
2022-09-17T14:03:58.769Z,18.49
2022-09-17T14:07:49.008Z,18.28
2022-09-17T14:12:04.934Z,18.35
2022-09-17T14:16:11.528Z,19.61
2022-09-17T14:20:25.852Z,19.53
2022-09-17T14:24:37.267Z,19.11
2022-09-17T14:29:00.722Z,18.73
2022-09-17T14:33:09.756Z,18.41
2022-09-17T14:37:19.005Z,18.16
2022-09-17T14:41:17.181Z,18.25
2022-09-17T14:45:08.429Z,19.52
2022-09-17T14:49:09.729Z,19.64
2022-09-17T14:53:20.772Z,19.32
2022-09-17T14:57:35.952Z,18.95
2022-09-17T15:01:16.887Z,18.63
2022-09-17T15:05:06.242Z,18.43
2022-09-17T15:09:14.421Z,18.21
2022-09-17T15:13:26.747Z,18.31
2022-09-17T15:17:35.084Z,19.50
2022-09-17T15:21:24.467Z,19.36
2022-09-17T15:25:38.712Z,18.98
2022-09-17T15:29:47.886Z,18.61
2022-09-17T15:33:50.949Z,18.26
2022-09-17T15:38:24.332Z,18.28
2022-09-17T15:42:35.320Z,19.31
2022-09-17T15:47:02.633Z,19.06
2022-09-17T15:51:17.164Z,18.55
2022-09-17T15:55:31.542Z,18.13
2022-09-17T15:59:43.427Z,17.82
2022-09-17T16:03:57.493Z,17.92
2022-09-17T16:08:09.842Z,19.08
2022-09-17T16:12:18.145Z,18.98
2022-09-17T16:16:26.445Z,18.56
2022-09-17T16:20:28.613Z,18.19
2022-09-17T16:24:20.458Z,18.14
2022-09-17T16:28:29.731Z,19.12
2022-09-17T16:32:17.766Z,19.08
2022-09-17T16:36:26.801Z,18.73
2022-09-17T16:40:34.344Z,18.26
2022-09-17T16:44:39.294Z,17.82
2022-09-17T16:48:23.454Z,17.76
2022-09-17T16:51:57.040Z,18.75
2022-09-17T16:56:05.345Z,18.75
2022-09-17T17:00:14.675Z,18.38
2022-09-17T17:04:05.562Z,17.95
2022-09-17T17:08:14.816Z,17.77
2022-09-17T17:11:37.889Z,18.71
2022-09-17T17:15:31.915Z,18.75
2022-09-17T17:19:33.159Z,18.33
2022-09-17T17:23:11.152Z,17.98
2022-09-17T17:27:14.883Z,17.59
2022-09-17T17:31:21.413Z,17.48
2022-09-17T17:34:22.246Z,18.53
2022-09-17T17:37:18.946Z,18.57
2022-09-17T17:39:58.302Z,18.38
2022-09-17T17:42:48.628Z,18.10
2022-09-17T17:46:21.333Z,17.79
2022-09-17T17:50:06.379Z,17.59
2022-09-17T17:54:03.761Z,18.53
2022-09-17T17:57:51.905Z,18.49
2022-09-17T18:02:00.318Z,18.05
2022-09-17T18:06:09.658Z,17.62
2022-09-17T18:09:56.647Z,17.56
2022-09-17T18:13:34.982Z,18.50
2022-09-17T18:17:43.133Z,18.41
2022-09-17T18:21:45.184Z,17.95
2022-09-17T18:25:46.899Z,17.51
2022-09-17T18:29:26.588Z,17.44
2022-09-17T18:32:54.467Z,18.32
2022-09-17T18:36:29.045Z,18.46
2022-09-17T18:40:15.875Z,18.05
2022-09-17T18:44:24.333Z,17.63
2022-09-17T18:48:36.286Z,17.56
2022-09-17T18:52:37.855Z,18.54
2022-09-17T18:56:52.125Z,18.42
2022-09-17T19:01:00.550Z,17.94
2022-09-17T19:04:51.178Z,17.47
2022-09-17T19:08:46.911Z,17.32
2022-09-17T19:12:59.243Z,18.39
2022-09-17T19:17:07.457Z,18.28
2022-09-17T19:21:17.865Z,17.82
2022-09-17T19:25:27.099Z,17.36
2022-09-17T19:29:36.362Z,17.31
2022-09-17T19:33:47.528Z,18.34
2022-09-17T19:37:47.895Z,18.17
2022-09-17T19:41:59.150Z,17.76
2022-09-17T19:46:07.551Z,17.29
2022-09-17T19:50:18.957Z,17.25
2022-09-17T19:53:38.916Z,18.25
2022-09-17T19:57:35.620Z,18.14
2022-09-17T20:01:48.565Z,17.69
2022-09-17T20:05:59.806Z,17.20
2022-09-17T20:09:48.241Z,17.08
2022-09-17T20:13:57.627Z,18.08
2022-09-17T20:18:00.558Z,17.93
2022-09-17T20:22:09.095Z,17.53
2022-09-17T20:25:32.009Z,17.14
2022-09-17T20:29:20.142Z,16.96
2022-09-17T20:33:11.032Z,18.05
2022-09-17T20:37:44.439Z,18.02
2022-09-17T20:41:44.554Z,17.55
2022-09-17T20:45:58.986Z,17.12
2022-09-17T20:50:08.122Z,17.11
2022-09-17T20:54:18.018Z,18.05
2022-09-17T20:58:16.198Z,17.86
2022-09-17T21:02:14.593Z,17.37
2022-09-17T21:05:57.891Z,16.90
2022-09-17T21:09:59.634Z,16.76
2022-09-17T21:14:08.573Z,17.83
2022-09-17T21:18:17.837Z,17.70
2022-09-17T21:22:27.009Z,17.23
2022-09-17T21:26:44.380Z,16.82
2022-09-17T21:30:52.759Z,16.79
2022-09-17T21:35:01.034Z,17.65
2022-09-17T21:38:42.012Z,17.42
2022-09-17T21:42:15.049Z,16.96
2022-09-17T21:45:46.081Z,16.55
2022-09-17T21:49:17.196Z,16.28
2022-09-17T21:53:20.310Z,17.22
2022-09-17T21:57:13.027Z,17.21
2022-09-17T22:01:24.029Z,16.73
2022-09-17T22:05:22.272Z,16.29
2022-09-17T22:09:18.979Z,16.17
2022-09-17T22:13:20.048Z,17.13
2022-09-17T22:17:20.772Z,17.01
2022-09-17T22:21:06.913Z,16.57
2022-09-17T22:25:15.056Z,16.14
2022-09-17T22:29:23.335Z,16.06
2022-09-17T22:33:22.918Z,16.99
2022-09-17T22:37:32.986Z,16.70
2022-09-17T22:41:44.063Z,16.21
2022-09-17T22:45:52.349Z,15.72
2022-09-17T22:50:00.563Z,15.64
2022-09-17T22:54:09.900Z,16.63
2022-09-17T22:58:18.104Z,16.45
2022-09-17T23:02:26.535Z,15.95
2022-09-17T23:06:34.786Z,15.50
2022-09-17T23:10:43.983Z,15.47
2022-09-17T23:14:52.146Z,16.42
2022-09-17T23:18:50.298Z,16.20
2022-09-17T23:22:59.915Z,15.71
2022-09-17T23:27:08.075Z,15.26
2022-09-17T23:31:18.410Z,15.26
2022-09-17T23:35:28.710Z,16.13
2022-09-17T23:39:36.963Z,15.94
2022-09-17T23:43:45.132Z,15.50
2022-09-17T23:47:45.986Z,15.38
2022-09-17T23:51:54.496Z,16.22
2022-09-17T23:56:02.641Z,15.99
